sensor_id;sensor_type;location;lat;lon;timestamp;P1;durP1;ratioP1;P2;durP2;ratioP2
74535;SDS011;63013;51.104;-115.370;2023-07-08T00:01:20;11.70;;;8.70;;
74535;SDS011;63013;51.104;-115.370;2023-07-08T00:03:47;10.20;;;8.50;;
74535;SDS011;63013;51.104;-115.370;2023-07-08T00:06:20;12.00;;;9.10;;
74535;SDS011;63013;51.104;-115.370;2023-07-08T00:08:49;11.10;;;9.20;;
74535;SDS011;63013;51.104;-115.370;2023-07-08T00:11:17;10.60;;;8.90;;
74535;SDS011;63013;51.104;-115.370;2023-07-08T00:13:45;12.30;;;8.80;;
74535;SDS011;63013;51.104;-115.370;2023-07-08T00:16:16;12.10;;;9.20;;
74535;SDS011;63013;51.104;-115.370;2023-07-08T00:18:45;10.90;;;8.90;;
74535;SDS011;63013;51.104;-115.370;2023-07-08T00:21:16;9.80;;;8.40;;
74535;SDS011;63013;51.104;-115.370;2023-07-08T00:23:47;11.20;;;9.20;;
74535;SDS011;63013;51.104;-115.370;2023-07-08T00:26:29;11.70;;;8.90;;
74535;SDS011;63013;51.104;-115.370;2023-07-08T00:28:57;12.00;;;9.40;;
74535;SDS011;63013;51.104;-115.370;2023-07-08T00:31:25;10.90;;;8.70;;
74535;SDS011;63013;51.104;-115.370;2023-07-08T00:33:55;10.90;;;8.60;;
74535;SDS011;63013;51.104;-115.370;2023-07-08T00:36:23;11.50;;;9.40;;
74535;SDS011;63013;51.104;-115.370;2023-07-08T00:38:53;11.10;;;8.90;;
74535;SDS011;63013;51.104;-115.370;2023-07-08T00:41:40;11.40;;;8.70;;
74535;SDS011;63013;51.104;-115.370;2023-07-08T00:44:12;10.70;;;8.40;;
74535;SDS011;63013;51.104;-115.370;2023-07-08T00:47:07;10.90;;;9.10;;
74535;SDS011;63013;51.104;-115.370;2023-07-08T00:49:59;10.30;;;8.70;;
74535;SDS011;63013;51.104;-115.370;2023-07-08T00:52:33;10.30;;;8.50;;
74535;SDS011;63013;51.104;-115.370;2023-07-08T00:55:05;11.90;;;9.20;;
74535;SDS011;63013;51.104;-115.370;2023-07-08T00:57:38;10.50;;;8.70;;
74535;SDS011;63013;51.104;-115.370;2023-07-08T01:00:11;10.60;;;8.90;;
74535;SDS011;63013;51.104;-115.370;2023-07-08T01:02:49;11.50;;;8.90;;
74535;SDS011;63013;51.104;-115.370;2023-07-08T01:05:24;12.70;;;8.50;;
74535;SDS011;63013;51.104;-115.370;2023-07-08T01:07:59;10.50;;;8.90;;
74535;SDS011;63013;51.104;-115.370;2023-07-08T01:10:37;9.90;;;8.60;;
74535;SDS011;63013;51.104;-115.370;2023-07-08T01:13:11;9.90;;;8.00;;
74535;SDS011;63013;51.104;-115.370;2023-07-08T01:15:44;11.00;;;8.50;;
74535;SDS011;63013;51.104;-115.370;2023-07-08T01:18:16;9.90;;;8.40;;
74535;SDS011;63013;51.104;-115.370;2023-07-08T01:20:51;10.90;;;8.80;;
74535;SDS011;63013;51.104;-115.370;2023-07-08T01:23:21;10.80;;;8.80;;
74535;SDS011;63013;51.104;-115.370;2023-07-08T01:25:50;9.90;;;8.20;;
74535;SDS011;63013;51.104;-115.370;2023-07-08T01:28:17;10.10;;;8.10;;
74535;SDS011;63013;51.104;-115.370;2023-07-08T01:30:45;11.50;;;8.10;;
74535;SDS011;63013;51.104;-115.370;2023-07-08T01:33:20;10.60;;;8.40;;
74535;SDS011;63013;51.104;-115.370;2023-07-08T01:35:51;11.80;;;8.80;;
74535;SDS011;63013;51.104;-115.370;2023-07-08T01:38:24;11.50;;;8.50;;
74535;SDS011;63013;51.104;-115.370;2023-07-08T01:40:56;11.10;;;8.40;;
74535;SDS011;63013;51.104;-115.370;2023-07-08T01:43:23;9.60;;;8.60;;
74535;SDS011;63013;51.104;-115.370;2023-07-08T01:45:51;11.40;;;8.80;;
74535;SDS011;63013;51.104;-115.370;2023-07-08T01:48:22;11.20;;;8.70;;
74535;SDS011;63013;51.104;-115.370;2023-07-08T01:51:04;9.10;;;8.10;;
74535;SDS011;63013;51.104;-115.370;2023-07-08T01:53:39;10.20;;;8.70;;
74535;SDS011;63013;51.104;-115.370;2023-07-08T01:56:09;9.90;;;8.20;;
74535;SDS011;63013;51.104;-115.370;2023-07-08T01:58:38;11.80;;;9.20;;
74535;SDS011;63013;51.104;-115.370;2023-07-08T02:01:06;10.40;;;8.60;;
74535;SDS011;63013;51.104;-115.370;2023-07-08T02:03:33;9.80;;;8.40;;
74535;SDS011;63013;51.104;-115.370;2023-07-08T02:06:02;10.80;;;8.50;;
74535;SDS011;63013;51.104;-115.370;2023-07-08T02:08:30;9.80;;;8.60;;
74535;SDS011;63013;51.104;-115.370;2023-07-08T02:10:58;10.90;;;8.70;;
74535;SDS011;63013;51.104;-115.370;2023-07-08T02:13:25;9.90;;;8.70;;
74535;SDS011;63013;51.104;-115.370;2023-07-08T02:15:52;10.30;;;8.80;;
74535;SDS011;63013;51.104;-115.370;2023-07-08T02:18:19;10.60;;;7.60;;
74535;SDS011;63013;51.104;-115.370;2023-07-08T02:20:47;10.80;;;8.50;;
74535;SDS011;63013;51.104;-115.370;2023-07-08T02:23:14;12.10;;;8.50;;
74535;SDS011;63013;51.104;-115.370;2023-07-08T02:25:43;11.30;;;8.00;;
74535;SDS011;63013;51.104;-115.370;2023-07-08T02:28:19;10.30;;;8.40;;
74535;SDS011;63013;51.104;-115.370;2023-07-08T02:30:46;10.20;;;8.20;;
74535;SDS011;63013;51.104;-115.370;2023-07-08T02:33:13;11.80;;;8.40;;
74535;SDS011;63013;51.104;-115.370;2023-07-08T02:35:43;9.90;;;8.40;;
74535;SDS011;63013;51.104;-115.370;2023-07-08T02:38:11;10.00;;;7.90;;
74535;SDS011;63013;51.104;-115.370;2023-07-08T02:40:38;10.40;;;8.50;;
74535;SDS011;63013;51.104;-115.370;2023-07-08T02:43:05;10.40;;;8.20;;
74535;SDS011;63013;51.104;-115.370;2023-07-08T02:45:32;10.70;;;8.20;;
74535;SDS011;63013;51.104;-115.370;2023-07-08T02:47:59;9.30;;;7.50;;
74535;SDS011;63013;51.104;-115.370;2023-07-08T02:50:25;12.60;;;8.40;;
74535;SDS011;63013;51.104;-115.370;2023-07-08T02:52:52;11.70;;;8.20;;
74535;SDS011;63013;51.104;-115.370;2023-07-08T02:55:19;10.00;;;8.40;;
74535;SDS011;63013;51.104;-115.370;2023-07-08T02:57:46;9.90;;;8.10;;
74535;SDS011;63013;51.104;-115.370;2023-07-08T03:00:13;10.80;;;8.20;;
74535;SDS011;63013;51.104;-115.370;2023-07-08T03:02:41;9.10;;;7.90;;
74535;SDS011;63013;51.104;-115.370;2023-07-08T03:05:08;9.50;;;8.10;;
74535;SDS011;63013;51.104;-115.370;2023-07-08T03:07:35;10.00;;;7.90;;
74535;SDS011;63013;51.104;-115.370;2023-07-08T03:10:02;11.60;;;8.20;;
74535;SDS011;63013;51.104;-115.370;2023-07-08T03:12:29;9.70;;;7.70;;
74535;SDS011;63013;51.104;-115.370;2023-07-08T03:14:57;9.50;;;8.10;;
74535;SDS011;63013;51.104;-115.370;2023-07-08T03:17:26;9.80;;;7.80;;
74535;SDS011;63013;51.104;-115.370;2023-07-08T03:19:58;9.90;;;7.80;;
74535;SDS011;63013;51.104;-115.370;2023-07-08T03:22:25;9.70;;;7.70;;
74535;SDS011;63013;51.104;-115.370;2023-07-08T03:24:54;9.90;;;8.20;;
74535;SDS011;63013;51.104;-115.370;2023-07-08T03:27:21;10.60;;;7.90;;
74535;SDS011;63013;51.104;-115.370;2023-07-08T03:29:49;10.70;;;8.30;;
74535;SDS011;63013;51.104;-115.370;2023-07-08T03:32:16;9.90;;;7.60;;
74535;SDS011;63013;51.104;-115.370;2023-07-08T03:34:44;9.30;;;8.20;;
74535;SDS011;63013;51.104;-115.370;2023-07-08T03:37:11;10.60;;;8.00;;
74535;SDS011;63013;51.104;-115.370;2023-07-08T03:39:38;10.10;;;7.60;;
74535;SDS011;63013;51.104;-115.370;2023-07-08T03:42:07;9.80;;;8.20;;
74535;SDS011;63013;51.104;-115.370;2023-07-08T03:44:34;10.00;;;7.60;;
74535;SDS011;63013;51.104;-115.370;2023-07-08T03:47:01;9.40;;;8.00;;
74535;SDS011;63013;51.104;-115.370;2023-07-08T03:49:30;10.60;;;8.00;;
74535;SDS011;63013;51.104;-115.370;2023-07-08T03:51:57;10.20;;;7.90;;
74535;SDS011;63013;51.104;-115.370;2023-07-08T03:54:25;11.30;;;7.80;;
74535;SDS011;63013;51.104;-115.370;2023-07-08T03:56:53;10.30;;;7.80;;
74535;SDS011;63013;51.104;-115.370;2023-07-08T03:59:20;10.90;;;8.10;;
74535;SDS011;63013;51.104;-115.370;2023-07-08T04:01:48;9.30;;;7.60;;
74535;SDS011;63013;51.104;-115.370;2023-07-08T04:04:16;11.90;;;7.90;;
74535;SDS011;63013;51.104;-115.370;2023-07-08T04:06:44;8.90;;;8.00;;
74535;SDS011;63013;51.104;-115.370;2023-07-08T04:09:11;10.10;;;7.60;;
74535;SDS011;63013;51.104;-115.370;2023-07-08T04:11:39;10.90;;;7.70;;
74535;SDS011;63013;51.104;-115.370;2023-07-08T04:14:08;10.60;;;8.30;;
74535;SDS011;63013;51.104;-115.370;2023-07-08T04:16:54;10.00;;;8.00;;
74535;SDS011;63013;51.104;-115.370;2023-07-08T04:19:26;9.60;;;7.60;;
74535;SDS011;63013;51.104;-115.370;2023-07-08T04:21:53;8.90;;;7.60;;
74535;SDS011;63013;51.104;-115.370;2023-07-08T04:24:20;9.30;;;7.20;;
74535;SDS011;63013;51.104;-115.370;2023-07-08T04:26:48;9.20;;;7.60;;
74535;SDS011;63013;51.104;-115.370;2023-07-08T04:29:22;9.70;;;7.90;;
74535;SDS011;63013;51.104;-115.370;2023-07-08T04:31:50;9.80;;;7.60;;
74535;SDS011;63013;51.104;-115.370;2023-07-08T04:34:22;10.10;;;7.70;;
74535;SDS011;63013;51.104;-115.370;2023-07-08T04:36:50;9.90;;;8.00;;
74535;SDS011;63013;51.104;-115.370;2023-07-08T04:39:19;8.80;;;7.80;;
74535;SDS011;63013;51.104;-115.370;2023-07-08T04:41:46;8.00;;;7.10;;
74535;SDS011;63013;51.104;-115.370;2023-07-08T04:44:13;9.90;;;7.80;;
74535;SDS011;63013;51.104;-115.370;2023-07-08T04:46:57;8.70;;;7.10;;
74535;SDS011;63013;51.104;-115.370;2023-07-08T04:49:25;10.70;;;7.80;;
74535;SDS011;63013;51.104;-115.370;2023-07-08T04:51:57;9.40;;;7.30;;
74535;SDS011;63013;51.104;-115.370;2023-07-08T04:54:25;8.80;;;7.20;;
74535;SDS011;63013;51.104;-115.370;2023-07-08T04:56:54;10.20;;;8.00;;
74535;SDS011;63013;51.104;-115.370;2023-07-08T04:59:24;9.30;;;7.60;;
74535;SDS011;63013;51.104;-115.370;2023-07-08T05:01:52;9.50;;;7.60;;
74535;SDS011;63013;51.104;-115.370;2023-07-08T05:04:21;8.90;;;6.90;;
74535;SDS011;63013;51.104;-115.370;2023-07-08T05:06:49;8.60;;;7.20;;
74535;SDS011;63013;51.104;-115.370;2023-07-08T05:09:16;10.10;;;7.60;;
74535;SDS011;63013;51.104;-115.370;2023-07-08T05:11:44;9.00;;;7.60;;
74535;SDS011;63013;51.104;-115.370;2023-07-08T05:14:12;9.30;;;7.40;;
74535;SDS011;63013;51.104;-115.370;2023-07-08T05:16:42;8.50;;;7.30;;
74535;SDS011;63013;51.104;-115.370;2023-07-08T05:19:09;9.00;;;7.50;;
74535;SDS011;63013;51.104;-115.370;2023-07-08T05:21:36;9.50;;;7.70;;
74535;SDS011;63013;51.104;-115.370;2023-07-08T05:24:05;8.00;;;7.20;;
74535;SDS011;63013;51.104;-115.370;2023-07-08T05:26:33;8.70;;;7.10;;
74535;SDS011;63013;51.104;-115.370;2023-07-08T05:29:00;7.70;;;6.60;;
74535;SDS011;63013;51.104;-115.370;2023-07-08T05:31:29;9.10;;;7.50;;
74535;SDS011;63013;51.104;-115.370;2023-07-08T05:33:56;8.80;;;7.50;;
74535;SDS011;63013;51.104;-115.370;2023-07-08T05:36:23;10.80;;;7.90;;
74535;SDS011;63013;51.104;-115.370;2023-07-08T05:38:50;9.10;;;7.00;;
74535;SDS011;63013;51.104;-115.370;2023-07-08T05:41:17;9.00;;;7.50;;
74535;SDS011;63013;51.104;-115.370;2023-07-08T05:43:44;9.00;;;7.30;;
74535;SDS011;63013;51.104;-115.370;2023-07-08T05:46:12;10.40;;;7.30;;
74535;SDS011;63013;51.104;-115.370;2023-07-08T05:48:39;8.40;;;7.00;;
74535;SDS011;63013;51.104;-115.370;2023-07-08T05:51:06;9.10;;;7.30;;
74535;SDS011;63013;51.104;-115.370;2023-07-08T05:53:34;7.70;;;6.80;;
74535;SDS011;63013;51.104;-115.370;2023-07-08T05:56:02;8.10;;;7.00;;
74535;SDS011;63013;51.104;-115.370;2023-07-08T05:58:31;8.50;;;7.40;;
74535;SDS011;63013;51.104;-115.370;2023-07-08T06:00:58;7.70;;;6.90;;
74535;SDS011;63013;51.104;-115.370;2023-07-08T06:03:26;7.90;;;6.50;;
74535;SDS011;63013;51.104;-115.370;2023-07-08T06:05:54;8.70;;;7.20;;
74535;SDS011;63013;51.104;-115.370;2023-07-08T06:08:21;8.50;;;7.10;;
74535;SDS011;63013;51.104;-115.370;2023-07-08T06:10:48;8.00;;;7.00;;
74535;SDS011;63013;51.104;-115.370;2023-07-08T06:13:17;8.30;;;7.10;;
74535;SDS011;63013;51.104;-115.370;2023-07-08T06:15:44;9.10;;;7.10;;
74535;SDS011;63013;51.104;-115.370;2023-07-08T06:18:11;8.40;;;6.90;;
74535;SDS011;63013;51.104;-115.370;2023-07-08T06:20:38;8.00;;;7.00;;
74535;SDS011;63013;51.104;-115.370;2023-07-08T06:23:05;8.60;;;6.70;;
74535;SDS011;63013;51.104;-115.370;2023-07-08T06:25:33;7.90;;;6.60;;
74535;SDS011;63013;51.104;-115.370;2023-07-08T06:28:00;8.30;;;7.20;;
74535;SDS011;63013;51.104;-115.370;2023-07-08T06:30:27;8.10;;;6.90;;
74535;SDS011;63013;51.104;-115.370;2023-07-08T06:32:54;8.40;;;6.60;;
74535;SDS011;63013;51.104;-115.370;2023-07-08T06:35:21;8.70;;;6.70;;
74535;SDS011;63013;51.104;-115.370;2023-07-08T06:37:48;8.60;;;6.90;;
74535;SDS011;63013;51.104;-115.370;2023-07-08T06:40:15;8.30;;;6.90;;
74535;SDS011;63013;51.104;-115.370;2023-07-08T06:42:45;9.30;;;7.70;;
74535;SDS011;63013;51.104;-115.370;2023-07-08T06:45:12;8.30;;;7.10;;
74535;SDS011;63013;51.104;-115.370;2023-07-08T06:47:39;7.60;;;6.30;;
74535;SDS011;63013;51.104;-115.370;2023-07-08T06:50:07;8.30;;;6.70;;
74535;SDS011;63013;51.104;-115.370;2023-07-08T06:52:35;10.60;;;6.50;;
74535;SDS011;63013;51.104;-115.370;2023-07-08T06:55:07;7.50;;;6.70;;
74535;SDS011;63013;51.104;-115.370;2023-07-08T06:57:37;7.80;;;6.50;;
74535;SDS011;63013;51.104;-115.370;2023-07-08T07:00:08;8.40;;;7.00;;
74535;SDS011;63013;51.104;-115.370;2023-07-08T07:02:37;8.50;;;6.70;;
74535;SDS011;63013;51.104;-115.370;2023-07-08T07:05:05;7.40;;;6.60;;
74535;SDS011;63013;51.104;-115.370;2023-07-08T07:07:32;9.20;;;7.10;;
74535;SDS011;63013;51.104;-115.370;2023-07-08T07:10:00;8.00;;;6.50;;
74535;SDS011;63013;51.104;-115.370;2023-07-08T07:12:27;8.20;;;6.60;;
74535;SDS011;63013;51.104;-115.370;2023-07-08T07:14:55;7.50;;;6.20;;
74535;SDS011;63013;51.104;-115.370;2023-07-08T07:17:23;8.60;;;6.70;;
74535;SDS011;63013;51.104;-115.370;2023-07-08T07:19:51;7.60;;;6.50;;
74535;SDS011;63013;51.104;-115.370;2023-07-08T07:22:18;9.00;;;6.70;;
74535;SDS011;63013;51.104;-115.370;2023-07-08T07:24:46;8.00;;;6.80;;
74535;SDS011;63013;51.104;-115.370;2023-07-08T07:27:13;9.50;;;6.60;;
74535;SDS011;63013;51.104;-115.370;2023-07-08T07:29:48;7.40;;;6.50;;
74535;SDS011;63013;51.104;-115.370;2023-07-08T07:32:19;7.00;;;6.30;;
74535;SDS011;63013;51.104;-115.370;2023-07-08T07:34:50;7.70;;;6.60;;
74535;SDS011;63013;51.104;-115.370;2023-07-08T07:37:20;7.50;;;6.40;;
74535;SDS011;63013;51.104;-115.370;2023-07-08T07:39:48;7.90;;;6.50;;
74535;SDS011;63013;51.104;-115.370;2023-07-08T07:42:18;7.70;;;6.10;;
74535;SDS011;63013;51.104;-115.370;2023-07-08T07:44:46;7.30;;;6.40;;
74535;SDS011;63013;51.104;-115.370;2023-07-08T07:47:13;8.10;;;6.60;;
74535;SDS011;63013;51.104;-115.370;2023-07-08T07:49:40;8.00;;;6.50;;
74535;SDS011;63013;51.104;-115.370;2023-07-08T07:52:07;7.60;;;6.20;;
74535;SDS011;63013;51.104;-115.370;2023-07-08T07:54:38;9.00;;;6.50;;
74535;SDS011;63013;51.104;-115.370;2023-07-08T07:57:06;8.60;;;6.80;;
74535;SDS011;63013;51.104;-115.370;2023-07-08T07:59:33;7.80;;;6.50;;
74535;SDS011;63013;51.104;-115.370;2023-07-08T08:02:00;8.00;;;6.50;;
74535;SDS011;63013;51.104;-115.370;2023-07-08T08:04:28;8.30;;;6.70;;
74535;SDS011;63013;51.104;-115.370;2023-07-08T08:06:55;7.50;;;6.00;;
74535;SDS011;63013;51.104;-115.370;2023-07-08T08:09:22;7.60;;;6.00;;
74535;SDS011;63013;51.104;-115.370;2023-07-08T08:11:49;7.60;;;6.40;;
74535;SDS011;63013;51.104;-115.370;2023-07-08T08:14:18;7.80;;;6.10;;
74535;SDS011;63013;51.104;-115.370;2023-07-08T08:16:45;7.10;;;5.70;;
74535;SDS011;63013;51.104;-115.370;2023-07-08T08:19:12;8.00;;;6.40;;
74535;SDS011;63013;51.104;-115.370;2023-07-08T08:21:40;7.20;;;6.20;;
74535;SDS011;63013;51.104;-115.370;2023-07-08T08:24:07;7.70;;;6.30;;
74535;SDS011;63013;51.104;-115.370;2023-07-08T08:26:34;7.80;;;6.00;;
74535;SDS011;63013;51.104;-115.370;2023-07-08T08:29:01;7.00;;;6.20;;
74535;SDS011;63013;51.104;-115.370;2023-07-08T08:31:28;6.90;;;6.20;;
74535;SDS011;63013;51.104;-115.370;2023-07-08T08:33:57;7.90;;;6.40;;
74535;SDS011;63013;51.104;-115.370;2023-07-08T08:36:24;7.90;;;6.10;;
74535;SDS011;63013;51.104;-115.370;2023-07-08T08:38:51;7.50;;;6.00;;
74535;SDS011;63013;51.104;-115.370;2023-07-08T08:41:21;8.00;;;6.40;;
74535;SDS011;63013;51.104;-115.370;2023-07-08T08:43:56;7.20;;;6.50;;
74535;SDS011;63013;51.104;-115.370;2023-07-08T08:46:52;7.60;;;6.00;;
74535;SDS011;63013;51.104;-115.370;2023-07-08T08:49:44;6.90;;;5.70;;
74535;SDS011;63013;51.104;-115.370;2023-07-08T08:52:20;7.00;;;5.90;;
74535;SDS011;63013;51.104;-115.370;2023-07-08T08:54:47;8.30;;;6.40;;
74535;SDS011;63013;51.104;-115.370;2023-07-08T08:57:36;8.10;;;6.30;;
74535;SDS011;63013;51.104;-115.370;2023-07-08T09:00:14;7.00;;;6.20;;
74535;SDS011;63013;51.104;-115.370;2023-07-08T09:05:29;8.30;;;6.10;;
74535;SDS011;63013;51.104;-115.370;2023-07-08T09:13:31;6.10;;;5.50;;
74535;SDS011;63013;51.104;-115.370;2023-07-08T09:19:32;6.70;;;6.00;;
74535;SDS011;63013;51.104;-115.370;2023-07-08T09:22:25;7.40;;;6.20;;
74535;SDS011;63013;51.104;-115.370;2023-07-08T09:27:53;6.70;;;5.50;;
74535;SDS011;63013;51.104;-115.370;2023-07-08T09:30:22;7.20;;;5.70;;
74535;SDS011;63013;51.104;-115.370;2023-07-08T09:32:57;7.10;;;6.40;;
74535;SDS011;63013;51.104;-115.370;2023-07-08T09:35:41;6.80;;;5.80;;
74535;SDS011;63013;51.104;-115.370;2023-07-08T09:38:17;6.20;;;5.50;;
74535;SDS011;63013;51.104;-115.370;2023-07-08T09:40:50;6.20;;;5.50;;
74535;SDS011;63013;51.104;-115.370;2023-07-08T09:43:48;6.90;;;5.90;;
74535;SDS011;63013;51.104;-115.370;2023-07-08T09:46:15;6.60;;;5.80;;
74535;SDS011;63013;51.104;-115.370;2023-07-08T09:48:42;7.00;;;5.90;;
74535;SDS011;63013;51.104;-115.370;2023-07-08T09:51:09;6.90;;;5.50;;
74535;SDS011;63013;51.104;-115.370;2023-07-08T09:53:36;7.00;;;5.60;;
74535;SDS011;63013;51.104;-115.370;2023-07-08T09:56:04;7.40;;;5.70;;
74535;SDS011;63013;51.104;-115.370;2023-07-08T09:58:36;9.30;;;6.40;;
74535;SDS011;63013;51.104;-115.370;2023-07-08T10:01:11;6.80;;;5.90;;
74535;SDS011;63013;51.104;-115.370;2023-07-08T10:03:42;6.60;;;5.90;;
74535;SDS011;63013;51.104;-115.370;2023-07-08T10:06:20;7.20;;;6.10;;
74535;SDS011;63013;51.104;-115.370;2023-07-08T10:08:54;6.40;;;5.60;;
74535;SDS011;63013;51.104;-115.370;2023-07-08T10:11:26;8.40;;;6.20;;
74535;SDS011;63013;51.104;-115.370;2023-07-08T10:14:11;7.80;;;6.30;;
74535;SDS011;63013;51.104;-115.370;2023-07-08T10:17:01;7.60;;;6.00;;
74535;SDS011;63013;51.104;-115.370;2023-07-08T10:19:28;6.70;;;5.80;;
74535;SDS011;63013;51.104;-115.370;2023-07-08T10:25:05;6.50;;;5.40;;
74535;SDS011;63013;51.104;-115.370;2023-07-08T10:28:28;7.50;;;6.30;;
74535;SDS011;63013;51.104;-115.370;2023-07-08T10:30:58;7.10;;;6.10;;
74535;SDS011;63013;51.104;-115.370;2023-07-08T10:57:58;6.70;;;5.90;;
74535;SDS011;63013;51.104;-115.370;2023-07-08T11:03:55;7.90;;;6.00;;
74535;SDS011;63013;51.104;-115.370;2023-07-08T11:10:00;7.30;;;5.80;;
74535;SDS011;63013;51.104;-115.370;2023-07-08T11:13:11;6.20;;;5.30;;
74535;SDS011;63013;51.104;-115.370;2023-07-08T11:21:31;6.10;;;5.40;;
74535;SDS011;63013;51.104;-115.370;2023-07-08T11:26:50;6.90;;;5.40;;
74535;SDS011;63013;51.104;-115.370;2023-07-08T11:29:42;6.20;;;5.10;;
74535;SDS011;63013;51.104;-115.370;2023-07-08T11:32:26;6.50;;;5.50;;
74535;SDS011;63013;51.104;-115.370;2023-07-08T11:34:56;6.50;;;5.80;;
74535;SDS011;63013;51.104;-115.370;2023-07-08T11:37:27;6.30;;;5.60;;
74535;SDS011;63013;51.104;-115.370;2023-07-08T11:40:07;7.60;;;5.80;;
74535;SDS011;63013;51.104;-115.370;2023-07-08T11:42:47;6.00;;;5.30;;
74535;SDS011;63013;51.104;-115.370;2023-07-08T11:47:48;6.70;;;5.20;;
74535;SDS011;63013;51.104;-115.370;2023-07-08T11:50:45;8.40;;;5.90;;
74535;SDS011;63013;51.104;-115.370;2023-07-08T11:53:33;5.90;;;5.30;;
74535;SDS011;63013;51.104;-115.370;2023-07-08T11:56:26;6.80;;;5.40;;
74535;SDS011;63013;51.104;-115.370;2023-07-08T11:59:03;7.00;;;5.70;;
74535;SDS011;63013;51.104;-115.370;2023-07-08T12:04:33;6.80;;;5.50;;
74535;SDS011;63013;51.104;-115.370;2023-07-08T12:07:14;6.10;;;5.00;;
74535;SDS011;63013;51.104;-115.370;2023-07-08T12:09:58;6.30;;;5.30;;
74535;SDS011;63013;51.104;-115.370;2023-07-08T12:12:33;6.20;;;5.60;;
74535;SDS011;63013;51.104;-115.370;2023-07-08T12:17:44;6.60;;;5.50;;
74535;SDS011;63013;51.104;-115.370;2023-07-08T12:20:32;6.30;;;5.50;;
74535;SDS011;63013;51.104;-115.370;2023-07-08T12:23:03;6.60;;;5.30;;
74535;SDS011;63013;51.104;-115.370;2023-07-08T12:25:37;7.40;;;5.40;;
74535;SDS011;63013;51.104;-115.370;2023-07-08T12:28:04;6.60;;;5.70;;
74535;SDS011;63013;51.104;-115.370;2023-07-08T12:30:32;6.60;;;5.70;;
74535;SDS011;63013;51.104;-115.370;2023-07-08T12:33:01;6.20;;;5.10;;
74535;SDS011;63013;51.104;-115.370;2023-07-08T12:35:30;6.00;;;5.40;;
74535;SDS011;63013;51.104;-115.370;2023-07-08T12:38:05;6.90;;;5.60;;
74535;SDS011;63013;51.104;-115.370;2023-07-08T12:40:50;6.90;;;5.80;;
74535;SDS011;63013;51.104;-115.370;2023-07-08T12:43:18;7.80;;;6.00;;
74535;SDS011;63013;51.104;-115.370;2023-07-08T12:45:45;8.80;;;5.10;;
74535;SDS011;63013;51.104;-115.370;2023-07-08T12:48:12;7.00;;;5.50;;
74535;SDS011;63013;51.104;-115.370;2023-07-08T12:50:39;5.90;;;5.10;;
74535;SDS011;63013;51.104;-115.370;2023-07-08T12:53:07;6.20;;;5.50;;
74535;SDS011;63013;51.104;-115.370;2023-07-08T12:55:40;6.10;;;5.50;;
74535;SDS011;63013;51.104;-115.370;2023-07-08T12:58:13;6.60;;;5.50;;
74535;SDS011;63013;51.104;-115.370;2023-07-08T13:00:48;6.40;;;5.20;;
74535;SDS011;63013;51.104;-115.370;2023-07-08T13:03:18;6.80;;;5.70;;
74535;SDS011;63013;51.104;-115.370;2023-07-08T13:05:50;7.60;;;5.40;;
74535;SDS011;63013;51.104;-115.370;2023-07-08T13:08:22;6.60;;;5.50;;
74535;SDS011;63013;51.104;-115.370;2023-07-08T13:10:58;6.70;;;5.80;;
74535;SDS011;63013;51.104;-115.370;2023-07-08T13:13:29;8.00;;;5.80;;
74535;SDS011;63013;51.104;-115.370;2023-07-08T13:16:01;6.70;;;5.60;;
74535;SDS011;63013;51.104;-115.370;2023-07-08T13:18:35;6.50;;;5.50;;
74535;SDS011;63013;51.104;-115.370;2023-07-08T13:21:07;6.90;;;5.80;;
74535;SDS011;63013;51.104;-115.370;2023-07-08T13:23:39;6.60;;;5.70;;
74535;SDS011;63013;51.104;-115.370;2023-07-08T13:26:15;7.40;;;5.60;;
74535;SDS011;63013;51.104;-115.370;2023-07-08T13:29:00;7.50;;;5.70;;
74535;SDS011;63013;51.104;-115.370;2023-07-08T13:31:37;6.40;;;5.30;;
74535;SDS011;63013;51.104;-115.370;2023-07-08T13:34:09;7.40;;;6.10;;
74535;SDS011;63013;51.104;-115.370;2023-07-08T13:36:44;6.40;;;5.50;;
74535;SDS011;63013;51.104;-115.370;2023-07-08T13:39:19;7.40;;;5.50;;
74535;SDS011;63013;51.104;-115.370;2023-07-08T13:42:08;7.70;;;5.60;;
74535;SDS011;63013;51.104;-115.370;2023-07-08T13:44:42;6.40;;;5.40;;
74535;SDS011;63013;51.104;-115.370;2023-07-08T13:47:28;8.10;;;6.40;;
74535;SDS011;63013;51.104;-115.370;2023-07-08T13:50:14;7.20;;;5.90;;
74535;SDS011;63013;51.104;-115.370;2023-07-08T13:52:54;6.30;;;5.50;;
74535;SDS011;63013;51.104;-115.370;2023-07-08T13:55:23;5.70;;;5.10;;
74535;SDS011;63013;51.104;-115.370;2023-07-08T13:58:01;8.40;;;5.70;;
74535;SDS011;63013;51.104;-115.370;2023-07-08T14:00:31;7.90;;;5.70;;
74535;SDS011;63013;51.104;-115.370;2023-07-08T14:02:58;6.90;;;5.70;;
74535;SDS011;63013;51.104;-115.370;2023-07-08T14:05:25;6.40;;;5.30;;
74535;SDS011;63013;51.104;-115.370;2023-07-08T14:07:52;6.00;;;5.40;;
74535;SDS011;63013;51.104;-115.370;2023-07-08T14:10:20;6.60;;;5.80;;
74535;SDS011;63013;51.104;-115.370;2023-07-08T14:12:47;6.80;;;5.80;;
74535;SDS011;63013;51.104;-115.370;2023-07-08T14:15:14;8.50;;;6.40;;
74535;SDS011;63013;51.104;-115.370;2023-07-08T14:17:41;7.40;;;6.00;;
74535;SDS011;63013;51.104;-115.370;2023-07-08T14:22:41;8.00;;;6.10;;
74535;SDS011;63013;51.104;-115.370;2023-07-08T14:25:09;7.50;;;5.60;;
74535;SDS011;63013;51.104;-115.370;2023-07-08T14:27:37;8.00;;;6.00;;
74535;SDS011;63013;51.104;-115.370;2023-07-08T14:30:05;7.00;;;5.70;;
74535;SDS011;63013;51.104;-115.370;2023-07-08T14:32:34;6.90;;;5.90;;
74535;SDS011;63013;51.104;-115.370;2023-07-08T14:37:46;7.70;;;5.70;;
74535;SDS011;63013;51.104;-115.370;2023-07-08T14:40:37;7.30;;;6.00;;
74535;SDS011;63013;51.104;-115.370;2023-07-08T14:45:46;7.40;;;5.70;;
74535;SDS011;63013;51.104;-115.370;2023-07-08T14:48:16;7.20;;;5.70;;
74535;SDS011;63013;51.104;-115.370;2023-07-08T14:50:43;7.00;;;5.70;;
74535;SDS011;63013;51.104;-115.370;2023-07-08T14:53:12;7.10;;;5.70;;
74535;SDS011;63013;51.104;-115.370;2023-07-08T14:55:41;6.70;;;5.30;;
74535;SDS011;63013;51.104;-115.370;2023-07-08T15:00:53;7.10;;;5.80;;
74535;SDS011;63013;51.104;-115.370;2023-07-08T15:03:23;6.90;;;5.60;;
74535;SDS011;63013;51.104;-115.370;2023-07-08T15:05:51;6.90;;;5.70;;
74535;SDS011;63013;51.104;-115.370;2023-07-08T15:08:18;6.80;;;5.10;;
74535;SDS011;63013;51.104;-115.370;2023-07-08T15:10:52;7.00;;;5.20;;
74535;SDS011;63013;51.104;-115.370;2023-07-08T15:13:29;7.30;;;5.80;;
74535;SDS011;63013;51.104;-115.370;2023-07-08T15:15:57;6.50;;;5.10;;
74535;SDS011;63013;51.104;-115.370;2023-07-08T15:18:24;6.50;;;5.30;;
74535;SDS011;63013;51.104;-115.370;2023-07-08T15:20:51;6.70;;;5.60;;
74535;SDS011;63013;51.104;-115.370;2023-07-08T15:23:18;6.60;;;5.70;;
74535;SDS011;63013;51.104;-115.370;2023-07-08T15:25:46;6.60;;;5.50;;
74535;SDS011;63013;51.104;-115.370;2023-07-08T15:28:35;7.40;;;5.90;;
74535;SDS011;63013;51.104;-115.370;2023-07-08T15:31:17;7.40;;;5.80;;
74535;SDS011;63013;51.104;-115.370;2023-07-08T15:33:53;7.10;;;5.70;;
74535;SDS011;63013;51.104;-115.370;2023-07-08T15:36:21;6.70;;;5.50;;
74535;SDS011;63013;51.104;-115.370;2023-07-08T15:38:48;7.00;;;5.90;;
74535;SDS011;63013;51.104;-115.370;2023-07-08T15:41:22;6.30;;;5.20;;
74535;SDS011;63013;51.104;-115.370;2023-07-08T15:43:55;6.70;;;5.20;;
74535;SDS011;63013;51.104;-115.370;2023-07-08T15:46:32;6.40;;;5.50;;